createdAt,value
2018-03-15T00:02:27.368Z,6.04
2018-03-15T00:04:53.667Z,5.98
2018-03-15T00:07:19.935Z,5.98
2018-03-15T00:09:46.302Z,5.97
2018-03-15T00:12:12.528Z,5.95
2018-03-15T00:14:38.937Z,5.96
2018-03-15T00:17:05.185Z,5.93
2018-03-15T00:19:31.420Z,5.92
2018-03-15T00:21:58.100Z,5.85
2018-03-15T00:24:24.452Z,5.83
2018-03-15T00:26:50.688Z,5.77
2018-03-15T00:29:17.140Z,5.78
2018-03-15T00:31:43.364Z,5.77
2018-03-15T00:34:09.856Z,5.74
2018-03-15T00:36:36.113Z,5.72
2018-03-15T00:39:02.641Z,5.67
2018-03-15T00:41:28.941Z,5.65
2018-03-15T00:43:55.356Z,5.65
2018-03-15T00:46:21.769Z,5.67
2018-03-15T00:48:47.984Z,5.70
2018-03-15T00:51:14.494Z,5.76
2018-03-15T00:53:40.723Z,5.66
2018-03-15T00:56:07.212Z,5.66
2018-03-15T00:58:33.537Z,5.69
2018-03-15T01:01:00.060Z,5.65
2018-03-15T01:03:26.374Z,5.64
2018-03-15T01:05:52.968Z,5.67
2018-03-15T01:08:19.193Z,5.66
2018-03-15T01:10:45.412Z,5.62
2018-03-15T01:13:11.648Z,5.59
2018-03-15T01:15:37.869Z,5.58
2018-03-15T01:18:04.095Z,5.61
2018-03-15T01:20:30.338Z,5.56
2018-03-15T01:22:56.567Z,5.60
2018-03-15T01:25:22.778Z,5.59
2018-03-15T01:27:49.011Z,5.62
2018-03-15T01:30:15.228Z,5.62
2018-03-15T01:32:41.443Z,5.62
2018-03-15T01:35:07.714Z,5.57
2018-03-15T01:37:33.936Z,5.60
2018-03-15T01:40:00.197Z,5.64
2018-03-15T01:42:26.439Z,5.70
2018-03-15T01:44:52.668Z,5.74
2018-03-15T01:47:18.888Z,5.63
2018-03-15T01:49:45.135Z,5.63
2018-03-15T01:52:11.358Z,5.55
2018-03-15T01:54:37.580Z,5.55
2018-03-15T01:57:03.840Z,5.58
2018-03-15T01:59:30.061Z,5.54
2018-03-15T02:01:56.323Z,5.52
2018-03-15T02:04:22.548Z,5.49
2018-03-15T02:06:48.755Z,5.46
2018-03-15T02:09:15.021Z,5.43
2018-03-15T02:11:41.292Z,5.34
2018-03-15T02:14:07.525Z,5.19
2018-03-15T02:16:33.741Z,5.08
2018-03-15T02:18:59.987Z,5.06
2018-03-15T02:21:26.224Z,5.01
2018-03-15T02:23:52.455Z,4.98
2018-03-15T02:26:18.706Z,4.93
2018-03-15T02:28:44.942Z,4.90
2018-03-15T02:31:11.162Z,4.91
2018-03-15T02:33:37.413Z,4.85
2018-03-15T02:36:03.652Z,4.81
2018-03-15T02:38:29.895Z,4.79
2018-03-15T02:40:56.148Z,4.74
2018-03-15T02:43:22.372Z,4.78
2018-03-15T02:45:48.592Z,4.78
2018-03-15T02:48:14.838Z,4.80
2018-03-15T02:50:41.050Z,4.83
2018-03-15T02:53:07.335Z,4.79
2018-03-15T02:55:33.552Z,4.80
2018-03-15T02:58:00.925Z,4.82
2018-03-15T03:00:27.140Z,4.75
2018-03-15T03:02:53.376Z,4.71
2018-03-15T03:05:19.602Z,4.71
2018-03-15T03:07:45.826Z,4.73
2018-03-15T03:10:12.064Z,4.79
2018-03-15T03:12:38.276Z,4.70
2018-03-15T03:15:04.488Z,4.76
2018-03-15T03:17:30.825Z,4.81
2018-03-15T03:19:57.032Z,4.75
2018-03-15T03:22:23.240Z,4.79
2018-03-15T03:24:49.480Z,4.76
2018-03-15T03:27:15.708Z,4.73
2018-03-15T03:29:41.920Z,4.68
2018-03-15T03:32:08.172Z,4.63
2018-03-15T03:34:34.411Z,4.63
2018-03-15T03:37:00.648Z,4.61
2018-03-15T03:39:26.893Z,4.60
2018-03-15T03:41:53.140Z,4.56
2018-03-15T03:44:19.375Z,4.49
2018-03-15T03:46:45.587Z,4.48
2018-03-15T03:49:11.824Z,4.46
2018-03-15T03:51:38.041Z,4.46
2018-03-15T03:54:04.300Z,4.51
2018-03-15T03:56:30.516Z,4.46
2018-03-15T03:58:56.723Z,4.42
2018-03-15T04:01:22.956Z,4.42
2018-03-15T04:03:49.167Z,4.40
2018-03-15T04:06:15.404Z,4.37
2018-03-15T04:08:41.620Z,4.38
2018-03-15T04:11:07.859Z,4.37
2018-03-15T04:13:34.099Z,4.28
2018-03-15T04:16:00.336Z,4.30
2018-03-15T04:18:26.549Z,4.29
2018-03-15T04:20:52.808Z,4.21
2018-03-15T04:23:19.035Z,4.10
2018-03-15T04:25:45.258Z,3.93
2018-03-15T04:28:11.491Z,3.94
2018-03-15T04:30:37.729Z,3.92
2018-03-15T04:33:03.960Z,3.96
2018-03-15T04:35:30.180Z,3.96
2018-03-15T04:37:56.415Z,3.96
2018-03-15T04:40:22.669Z,3.96
2018-03-15T04:42:48.895Z,3.98
2018-03-15T04:45:15.113Z,4.02
2018-03-15T04:47:41.413Z,4.05
2018-03-15T04:50:07.625Z,4.03
2018-03-15T04:52:33.908Z,4.01
2018-03-15T04:55:00.149Z,4.01
2018-03-15T04:57:26.372Z,4.03
2018-03-15T04:59:52.608Z,3.99
2018-03-15T05:02:18.835Z,3.95
2018-03-15T05:04:45.077Z,3.94
2018-03-15T05:07:11.316Z,3.90
2018-03-15T05:09:37.571Z,3.90
2018-03-15T05:12:03.833Z,3.81
2018-03-15T05:14:30.119Z,3.83
2018-03-15T05:16:56.328Z,3.84
2018-03-15T05:19:22.578Z,3.82
2018-03-15T05:21:48.859Z,3.81
2018-03-15T05:24:15.065Z,3.75
2018-03-15T05:26:41.325Z,3.79
2018-03-15T05:29:07.545Z,3.85
2018-03-15T05:31:33.816Z,3.90
2018-03-15T05:34:00.068Z,3.88
2018-03-15T05:36:26.315Z,3.89
2018-03-15T05:38:52.553Z,3.91
2018-03-15T05:41:18.785Z,3.91
2018-03-15T05:43:45.053Z,3.90
2018-03-15T05:46:11.321Z,4.03
2018-03-15T05:48:37.618Z,4.12
2018-03-15T05:51:03.945Z,4.20
2018-03-15T05:53:30.222Z,4.30
2018-03-15T05:55:56.473Z,4.39
2018-03-15T05:58:22.735Z,4.50
2018-03-15T06:00:49.025Z,4.63
2018-03-15T06:03:15.276Z,4.81
2018-03-15T06:05:41.523Z,4.98
2018-03-15T06:08:07.740Z,5.13
2018-03-15T06:10:33.968Z,5.28
2018-03-15T06:13:00.180Z,5.40
2018-03-15T06:15:26.414Z,5.53
2018-03-15T06:17:52.632Z,5.58
2018-03-15T06:20:18.861Z,5.63
2018-03-15T06:22:45.077Z,5.73
2018-03-15T06:25:11.308Z,5.80
2018-03-15T06:27:37.521Z,5.92
2018-03-15T06:30:03.793Z,5.95
2018-03-15T06:32:30.030Z,6.05
2018-03-15T06:34:56.257Z,6.07
2018-03-15T06:37:22.493Z,6.12
2018-03-15T06:39:48.716Z,6.21
2018-03-15T06:42:14.945Z,6.30
2018-03-15T06:44:41.165Z,6.41
2018-03-15T06:47:07.417Z,6.44
2018-03-15T06:49:33.632Z,6.59
2018-03-15T06:51:59.872Z,6.84
2018-03-15T06:54:26.080Z,7.01
2018-03-15T06:56:52.304Z,7.23
2018-03-15T06:59:18.541Z,7.51
2018-03-15T07:01:44.751Z,7.79
2018-03-15T07:04:11.029Z,7.97
2018-03-15T07:06:37.244Z,8.24
2018-03-15T07:09:03.532Z,8.43
2018-03-15T07:11:29.738Z,8.59
2018-03-15T07:13:55.968Z,8.71
2018-03-15T07:16:22.192Z,8.84
2018-03-15T07:18:48.481Z,8.91
2018-03-15T07:21:14.701Z,9.17
2018-03-15T07:23:40.928Z,9.27
2018-03-15T07:26:07.167Z,9.41
2018-03-15T07:28:33.404Z,9.77
2018-03-15T07:30:59.636Z,9.91
2018-03-15T07:33:25.856Z,9.77
2018-03-15T07:35:52.096Z,9.65
2018-03-15T07:38:18.313Z,9.66
2018-03-15T07:40:44.548Z,10.05
2018-03-15T07:43:10.783Z,10.69
2018-03-15T07:45:37.031Z,10.37
2018-03-15T07:48:03.428Z,10.16
2018-03-15T07:50:29.696Z,10.18
2018-03-15T07:52:55.961Z,9.84
2018-03-15T07:55:22.229Z,9.52
2018-03-15T07:57:48.481Z,9.24
2018-03-15T08:00:14.715Z,9.14
2018-03-15T08:02:40.952Z,9.16
2018-03-15T08:05:07.176Z,8.82
2018-03-15T08:07:33.407Z,8.83
2018-03-15T08:09:59.607Z,8.79
2018-03-15T08:12:25.836Z,8.72
2018-03-15T08:14:52.043Z,8.83
2018-03-15T08:17:18.273Z,8.99
2018-03-15T08:19:44.484Z,9.46
2018-03-15T08:22:10.739Z,9.23
2018-03-15T08:24:37.380Z,9.21
2018-03-15T08:27:03.812Z,12.19
2018-03-15T08:29:30.115Z,14.46
2018-03-15T08:31:56.456Z,15.89
2018-03-15T08:34:22.907Z,16.77
2018-03-15T08:36:49.133Z,16.86
2018-03-15T08:39:15.563Z,15.25
2018-03-15T08:41:41.776Z,13.97
2018-03-15T08:44:08.326Z,14.81
2018-03-15T08:46:34.611Z,15.85
2018-03-15T08:49:01.092Z,15.89
2018-03-15T08:51:27.435Z,16.35
2018-03-15T08:53:53.718Z,15.47
2018-03-15T08:56:20.069Z,15.54
2018-03-15T08:58:46.432Z,16.34
2018-03-15T09:01:12.904Z,16.92
2018-03-15T09:03:39.168Z,16.04
2018-03-15T09:06:05.451Z,15.48
2018-03-15T09:08:31.689Z,15.58
2018-03-15T09:10:58.311Z,15.34
2018-03-15T09:13:24.843Z,16.47
2018-03-15T09:15:51.136Z,15.75
2018-03-15T09:18:17.671Z,15.34
2018-03-15T09:20:43.896Z,15.86
2018-03-15T09:23:10.272Z,16.86
2018-03-15T09:25:36.535Z,16.85
2018-03-15T09:28:03.101Z,17.96
2018-03-15T09:30:29.500Z,17.03
2018-03-15T09:32:55.777Z,17.58
2018-03-15T09:35:22.328Z,16.72
2018-03-15T09:37:48.609Z,16.33
2018-03-15T09:40:15.059Z,15.53
2018-03-15T09:42:41.432Z,14.97
2018-03-15T09:45:07.796Z,14.36
2018-03-15T09:47:34.131Z,14.21
2018-03-15T09:50:00.429Z,14.43
2018-03-15T09:52:26.801Z,14.24
2018-03-15T09:54:53.130Z,14.24
2018-03-15T09:57:19.754Z,14.37
2018-03-15T09:59:46.049Z,13.99
2018-03-15T10:02:12.311Z,13.50
2018-03-15T10:04:38.596Z,13.84
2018-03-15T10:07:04.897Z,14.13
2018-03-15T10:09:31.131Z,15.15
2018-03-15T10:11:57.404Z,15.32
2018-03-15T10:14:23.636Z,15.96
2018-03-15T10:16:50.263Z,16.78
2018-03-15T10:19:16.504Z,17.16
2018-03-15T10:21:42.768Z,16.92
2018-03-15T10:24:09.011Z,17.46
2018-03-15T10:26:35.315Z,17.12
2018-03-15T10:29:01.580Z,17.38
2018-03-15T10:31:27.825Z,18.18
2018-03-15T10:33:54.092Z,18.63
2018-03-15T10:36:20.344Z,18.21
2018-03-15T10:38:46.595Z,16.88
2018-03-15T10:41:12.916Z,15.87
2018-03-15T10:43:39.148Z,16.55
2018-03-15T10:46:05.410Z,16.93
2018-03-15T10:48:31.664Z,17.04
2018-03-15T10:50:57.932Z,17.08
2018-03-15T10:53:24.228Z,17.94
2018-03-15T10:55:50.493Z,16.51
2018-03-15T10:58:16.728Z,15.58
2018-03-15T11:00:49.016Z,17.03
2018-03-15T11:03:17.091Z,15.88
2018-03-15T11:05:46.453Z,15.59
2018-03-15T11:08:18.807Z,15.07
2018-03-15T11:10:45.099Z,15.21
2018-03-15T11:13:11.335Z,15.86
2018-03-15T11:15:37.613Z,15.25
2018-03-15T11:18:03.892Z,15.75
2018-03-15T11:20:30.128Z,18.08
2018-03-15T11:22:56.428Z,19.03
2018-03-15T11:25:22.703Z,18.07
2018-03-15T11:27:49.009Z,16.84
2018-03-15T11:30:15.248Z,18.09
2018-03-15T11:32:41.510Z,19.98
2018-03-15T11:35:07.755Z,19.81
2018-03-15T11:37:34.017Z,19.51
2018-03-15T11:40:00.256Z,18.54
2018-03-15T11:42:26.568Z,17.63
2018-03-15T11:44:52.816Z,16.89
2018-03-15T11:47:19.067Z,16.55
2018-03-15T11:49:45.323Z,18.63
2018-03-15T11:52:11.559Z,19.03
2018-03-15T11:54:37.853Z,18.15
2018-03-15T11:57:04.168Z,16.89
2018-03-15T11:59:30.415Z,16.78
2018-03-15T12:01:56.655Z,19.30
2018-03-15T12:04:22.920Z,19.49
2018-03-15T12:06:49.165Z,18.51
2018-03-15T12:09:15.420Z,20.68
2018-03-15T12:11:41.688Z,21.28
2018-03-15T12:14:07.940Z,19.19
2018-03-15T12:16:34.212Z,18.30
2018-03-15T12:19:00.459Z,17.58
2018-03-15T12:21:27.338Z,17.61
2018-03-15T12:23:53.620Z,20.41
2018-03-15T12:26:19.864Z,21.53
2018-03-15T12:28:46.121Z,21.84
2018-03-15T12:31:12.344Z,22.85
2018-03-15T12:33:38.581Z,24.04
2018-03-15T12:36:04.819Z,24.59
2018-03-15T12:38:31.051Z,24.67
2018-03-15T12:40:57.282Z,25.59
2018-03-15T12:43:23.511Z,26.47
2018-03-15T12:45:49.771Z,26.91
2018-03-15T12:48:15.985Z,27.45
2018-03-15T12:50:42.229Z,26.67
2018-03-15T12:53:08.487Z,26.64
2018-03-15T12:55:34.736Z,25.69
2018-03-15T12:58:00.949Z,23.17
2018-03-15T13:00:27.202Z,20.84
2018-03-15T13:02:53.464Z,19.52
2018-03-15T13:05:19.704Z,18.90
2018-03-15T13:07:45.940Z,19.11
2018-03-15T13:10:12.200Z,19.86
2018-03-15T13:12:38.427Z,19.00
2018-03-15T13:15:04.668Z,19.25
2018-03-15T13:17:30.906Z,20.21
2018-03-15T13:19:57.156Z,20.39
2018-03-15T13:22:23.393Z,18.56
2018-03-15T13:24:49.616Z,17.37
2018-03-15T13:27:15.848Z,16.41
2018-03-15T13:29:42.071Z,15.92
2018-03-15T13:32:08.304Z,19.05
2018-03-15T13:34:34.553Z,18.67
2018-03-15T13:37:00.796Z,16.75
2018-03-15T13:39:27.013Z,15.66
2018-03-15T13:41:53.248Z,16.78
2018-03-15T13:44:19.496Z,19.03
2018-03-15T13:46:45.724Z,20.71
2018-03-15T13:49:11.977Z,21.55
2018-03-15T13:51:38.200Z,22.28
2018-03-15T13:54:04.504Z,22.37
2018-03-15T13:56:30.732Z,22.70
2018-03-15T13:58:56.990Z,21.90
2018-03-15T14:01:23.269Z,22.02
2018-03-15T14:03:49.508Z,20.53
2018-03-15T14:06:15.740Z,19.50
2018-03-15T14:08:41.999Z,18.14
2018-03-15T14:11:08.220Z,17.62
2018-03-15T14:13:34.456Z,17.00
2018-03-15T14:16:00.688Z,16.51
2018-03-15T14:18:26.908Z,16.30
2018-03-15T14:20:53.152Z,16.02
2018-03-15T14:23:19.407Z,15.44
2018-03-15T14:25:45.628Z,15.66
2018-03-15T14:28:11.839Z,15.42
2018-03-15T14:30:38.076Z,15.34
2018-03-15T14:33:04.320Z,15.74
2018-03-15T14:35:30.569Z,15.97
2018-03-15T14:37:56.791Z,15.81
2018-03-15T14:40:23.021Z,15.73
2018-03-15T14:42:49.267Z,16.63
2018-03-15T14:45:15.520Z,16.10
2018-03-15T14:47:41.779Z,15.59
2018-03-15T14:50:07.996Z,14.87
2018-03-15T14:52:34.240Z,14.30
2018-03-15T14:55:00.480Z,13.84
2018-03-15T14:57:26.716Z,13.70
2018-03-15T14:59:52.944Z,13.63
2018-03-15T15:02:19.208Z,13.42
2018-03-15T15:04:45.424Z,13.29
2018-03-15T15:07:11.647Z,13.28
2018-03-15T15:09:37.892Z,13.23
2018-03-15T15:12:04.108Z,14.03
2018-03-15T15:14:30.356Z,14.44
2018-03-15T15:16:56.618Z,14.35
2018-03-15T15:19:22.896Z,14.37
2018-03-15T15:21:49.123Z,14.03
2018-03-15T15:24:15.369Z,13.82
2018-03-15T15:26:41.597Z,14.15
2018-03-15T15:29:07.897Z,14.64
2018-03-15T15:31:34.185Z,14.53
2018-03-15T15:34:00.438Z,14.65
2018-03-15T15:36:26.668Z,15.24
2018-03-15T15:38:52.893Z,15.40
2018-03-15T15:41:19.174Z,15.40
2018-03-15T15:43:45.410Z,15.26
2018-03-15T15:46:11.661Z,14.75
2018-03-15T15:48:37.880Z,14.50
2018-03-15T15:51:04.128Z,14.03
2018-03-15T15:53:30.432Z,13.92
2018-03-15T15:55:56.652Z,14.19
2018-03-15T15:58:22.885Z,14.38
2018-03-15T16:00:49.101Z,14.10
2018-03-15T16:03:15.344Z,13.78
2018-03-15T16:05:41.604Z,13.51
2018-03-15T16:08:07.864Z,13.27
2018-03-15T16:10:34.129Z,13.04
2018-03-15T16:13:00.379Z,12.85
2018-03-15T16:15:26.601Z,12.67
2018-03-15T16:17:52.875Z,12.54
2018-03-15T16:20:19.116Z,12.36
2018-03-15T16:22:45.360Z,12.25
2018-03-15T16:25:11.604Z,12.15
2018-03-15T16:27:37.837Z,11.99
2018-03-15T16:30:04.137Z,11.86
2018-03-15T16:32:30.360Z,11.80
2018-03-15T16:34:56.620Z,11.70
2018-03-15T16:37:22.855Z,11.65
2018-03-15T16:39:49.108Z,11.55
2018-03-15T16:42:15.368Z,11.41
2018-03-15T16:44:41.646Z,11.36
2018-03-15T16:47:07.902Z,11.28
2018-03-15T16:49:34.125Z,11.10
2018-03-15T16:52:00.370Z,10.98
2018-03-15T16:54:26.621Z,10.87
2018-03-15T16:56:52.876Z,10.80
2018-03-15T16:59:19.108Z,10.73
2018-03-15T17:01:45.378Z,10.74
2018-03-15T17:04:11.609Z,10.65
2018-03-15T17:06:37.850Z,10.65
2018-03-15T17:09:04.132Z,10.61
2018-03-15T17:11:30.434Z,10.51
2018-03-15T17:13:56.705Z,10.47
2018-03-15T17:16:22.928Z,10.41
2018-03-15T17:18:49.205Z,10.32
2018-03-15T17:21:15.471Z,10.18
2018-03-15T17:23:44.236Z,10.16
2018-03-15T17:26:10.508Z,10.11
2018-03-15T17:28:36.828Z,10.07
2018-03-15T17:31:03.246Z,10.02
2018-03-15T17:33:29.484Z,9.94
2018-03-15T17:35:56.001Z,9.90
2018-03-15T17:38:22.400Z,9.88
2018-03-15T17:40:48.745Z,9.78
2018-03-15T17:43:14.967Z,9.75
2018-03-15T17:45:41.312Z,9.73
2018-03-15T17:48:07.630Z,9.70
2018-03-15T17:50:33.927Z,9.68
2018-03-15T17:53:00.240Z,9.65
2018-03-15T17:55:26.528Z,9.61
2018-03-15T17:57:52.764Z,9.54
2018-03-15T18:00:19.008Z,9.50
2018-03-15T18:02:45.293Z,9.43
2018-03-15T18:05:11.542Z,9.40
2018-03-15T18:07:37.797Z,9.40
2018-03-15T18:10:04.393Z,9.39
2018-03-15T18:12:30.819Z,9.30
2018-03-15T18:14:57.097Z,9.28
2018-03-15T18:17:23.639Z,9.27
2018-03-15T18:19:49.952Z,9.24
2018-03-15T18:22:16.302Z,9.23
2018-03-15T18:24:42.730Z,9.23
2018-03-15T18:27:08.969Z,9.22
2018-03-15T18:29:35.361Z,9.16
2018-03-15T18:32:01.636Z,9.13
2018-03-15T18:34:28.115Z,9.13
2018-03-15T18:36:54.496Z,9.10
2018-03-15T18:39:21.018Z,9.11
2018-03-15T18:41:47.311Z,9.09
2018-03-15T18:44:13.571Z,9.10
2018-03-15T18:46:39.874Z,9.07
2018-03-15T18:49:06.161Z,8.96
2018-03-15T18:51:32.392Z,8.97
2018-03-15T18:53:58.682Z,9.00
2018-03-15T18:56:24.936Z,9.01
2018-03-15T18:58:51.204Z,8.96
2018-03-15T19:01:17.532Z,8.95
2018-03-15T19:03:43.785Z,8.95
2018-03-15T19:06:10.105Z,8.98
2018-03-15T19:08:36.401Z,9.00
2018-03-15T19:11:02.648Z,9.01
2018-03-15T19:13:28.920Z,8.96
2018-03-15T19:15:55.202Z,8.96
2018-03-15T19:18:21.453Z,8.98
2018-03-15T19:20:47.718Z,8.93
2018-03-15T19:23:14.640Z,8.90
2018-03-15T19:25:40.921Z,8.94
2018-03-15T19:28:07.175Z,8.93
2018-03-15T19:30:33.460Z,8.98
2018-03-15T19:32:59.692Z,8.95
2018-03-15T19:35:25.957Z,8.98
2018-03-15T19:37:52.274Z,8.91
2018-03-15T19:40:18.501Z,8.88
2018-03-15T19:42:44.759Z,8.89
2018-03-15T19:45:11.016Z,8.88
2018-03-15T19:47:37.303Z,8.88
2018-03-15T19:50:03.606Z,8.82
2018-03-15T19:52:29.882Z,8.84
2018-03-15T19:54:56.117Z,8.81
2018-03-15T19:57:22.365Z,8.83
2018-03-15T19:59:48.630Z,8.86
2018-03-15T20:02:14.902Z,8.85
2018-03-15T20:04:41.179Z,8.84
2018-03-15T20:07:07.476Z,8.77
2018-03-15T20:09:33.744Z,8.77
2018-03-15T20:11:59.990Z,8.84
2018-03-15T20:14:26.256Z,8.84
2018-03-15T20:16:52.497Z,8.83
2018-03-15T20:19:18.819Z,8.86
2018-03-15T20:21:45.129Z,8.84
2018-03-15T20:24:17.423Z,8.77
2018-03-15T20:26:43.661Z,8.69
2018-03-15T20:29:09.877Z,8.77
2018-03-15T20:31:36.164Z,8.81
2018-03-15T20:34:08.437Z,8.84
2018-03-15T20:36:34.692Z,8.86
2018-03-15T20:39:01.105Z,8.83
2018-03-15T20:41:27.409Z,8.84
2018-03-15T20:43:53.752Z,8.81
2018-03-15T20:46:25.932Z,8.81
2018-03-15T20:48:58.426Z,8.84
2018-03-15T20:51:24.845Z,8.80
2018-03-15T20:53:51.096Z,8.84
2018-03-15T20:56:17.347Z,8.77
2018-03-15T20:58:43.620Z,8.76
2018-03-15T21:01:10.048Z,8.79
2018-03-15T21:03:36.448Z,8.77
2018-03-15T21:06:02.690Z,8.75
2018-03-15T21:08:28.938Z,8.78
2018-03-15T21:10:55.277Z,8.80
2018-03-15T21:13:21.522Z,8.80
2018-03-15T21:15:48.048Z,8.79
2018-03-15T21:18:14.373Z,8.80
2018-03-15T21:20:40.911Z,8.78
2018-03-15T21:23:07.310Z,8.77
2018-03-15T21:25:33.536Z,8.77
2018-03-15T21:27:59.809Z,8.84
2018-03-15T21:30:26.072Z,8.75
2018-03-15T21:32:54.687Z,8.71
2018-03-15T21:35:20.920Z,8.76
2018-03-15T21:37:47.152Z,8.84
2018-03-15T21:40:13.392Z,8.87
2018-03-15T21:42:39.645Z,8.87
2018-03-15T21:45:06.029Z,8.87
2018-03-15T21:47:32.291Z,8.84
2018-03-15T21:49:58.526Z,8.80
2018-03-15T21:52:24.980Z,8.82
2018-03-15T21:54:51.200Z,8.75
2018-03-15T21:57:17.412Z,8.74
2018-03-15T21:59:43.664Z,8.74
2018-03-15T22:02:09.887Z,8.70
2018-03-15T22:04:36.377Z,8.75
2018-03-15T22:07:02.636Z,8.80
2018-03-15T22:09:28.870Z,8.78
2018-03-15T22:11:55.176Z,8.80
2018-03-15T22:14:21.411Z,8.75
2018-03-15T22:16:47.699Z,8.81
2018-03-15T22:19:13.980Z,8.76
2018-03-15T22:21:40.221Z,8.75
2018-03-15T22:24:06.644Z,8.68
2018-03-15T22:26:32.901Z,8.72
2018-03-15T22:28:59.164Z,8.71
2018-03-15T22:31:25.404Z,8.73
2018-03-15T22:33:51.637Z,8.76
2018-03-15T22:36:18.007Z,8.75
2018-03-15T22:38:44.248Z,8.73
2018-03-15T22:41:10.468Z,8.76
2018-03-15T22:43:36.891Z,8.74
2018-03-15T22:46:03.164Z,8.73
2018-03-15T22:48:29.402Z,8.73
2018-03-15T22:50:55.668Z,8.77
2018-03-15T22:53:21.905Z,8.73
2018-03-15T22:55:48.297Z,8.58
2018-03-15T22:58:14.552Z,8.60
2018-03-15T23:00:40.783Z,8.52
2018-03-15T23:03:07.140Z,8.40
2018-03-15T23:05:33.376Z,8.44
2018-03-15T23:07:59.667Z,8.47
2018-03-15T23:10:25.923Z,8.46
2018-03-15T23:12:52.156Z,8.47
2018-03-15T23:15:18.547Z,8.50
2018-03-15T23:17:44.769Z,8.51
2018-03-15T23:20:11.050Z,8.48
2018-03-15T23:22:37.330Z,8.42
2018-03-15T23:25:03.612Z,8.49
2018-03-15T23:27:30.245Z,8.40
2018-03-15T23:29:56.492Z,8.39
2018-03-15T23:32:22.732Z,8.39
2018-03-15T23:34:49.082Z,8.39
2018-03-15T23:37:15.334Z,8.38
2018-03-15T23:39:41.583Z,8.36
2018-03-15T23:42:07.837Z,8.37
2018-03-15T23:44:34.062Z,8.42
2018-03-15T23:47:00.304Z,8.41
2018-03-15T23:49:26.529Z,8.43
2018-03-15T23:51:52.754Z,8.50
2018-03-15T23:54:19.132Z,8.50
2018-03-15T23:56:45.365Z,8.50
2018-03-15T23:59:11.674Z,8.54
